M._banatov — UABI — position and weather

sailwx.info

Track history (hours):
 
Tides and Currents Weather Stations Pressure Air Temp Water Temp Dewpoint Dewpoint Depression Visibility Wind Speed Wind Dir Waves Ship Positions

M._banatov

Last reported at 2016-Nov-17 19:24 UTC. Time now 2016-Dec-04 18:19 UTC.
Position N 45°30' E 036°48'.
Warning: this ship's position is 16 days out of date.

Length 132 m; draft 2.8 m.

Type: Ship. MMSI: 273272100.

Date/timePositionNaut miles runAvg speedWind from/ knotsBaromVisibWave heightAir tempDewpointWater temp
2016-Nov-17 19:24N 45°30' E 036°48'6 7.3
2016-Nov-17 18:33N 45°25' E 036°42'15 3.8
2016-Nov-17 14:33N 45°13' E 036°30'7 6.6
2016-Nov-17 13:32N 45°07' E 036°34'5 0.4
2016-Nov-17 02:14N 45°11' E 036°31'13 4.7
2016-Nov-16 23:33N 45°22' E 036°40'3 2.6
2016-Nov-16 22:33N 45°24' E 036°42'8 0.3
2016-Nov-15 18:22N 45°30' E 036°49'0 0.0
2016-Nov-15 13:08N 45°30' E 036°49'0 0.0
2016-Nov-15 12:20N 45°30' E 036°49'0 0.0
2016-Nov-15 11:32N 45°30' E 036°49'0 0.0
2016-Nov-15 10:29N 45°30' E 036°49'0 0.0
2016-Nov-15 07:16N 45°30' E 036°49'0 0.0
2016-Nov-15 06:10N 45°30' E 036°49'0 0.0
2016-Nov-15 05:43N 45°30' E 036°49'0 0.0
2016-Nov-14 23:16N 45°30' E 036°49'0 0.0
2016-Nov-14 11:25N 45°30' E 036°49'0 0.0
2016-Nov-14 08:30N 45°30' E 036°49'0 0.0
2016-Nov-14 05:24N 45°30' E 036°49'0 0.0
2016-Nov-13 08:22N 45°30' E 036°48'0 0.0
2016-Nov-12 16:25N 45°30' E 036°48'0 0.0
2016-Nov-12 15:20N 45°30' E 036°48'0 0.0
2016-Nov-12 13:26N 45°30' E 036°48'0 0.0
2016-Nov-12 12:14N 45°30' E 036°48'0 0.0
2016-Nov-12 11:23N 45°30' E 036°48'0 0.0
2016-Nov-12 09:29N 45°30' E 036°48'0 0.0
2016-Nov-12 06:29N 45°30' E 036°48'0 0.0
2016-Nov-11 10:33N 45°31' E 036°49'0 0.0
2016-Nov-11 09:27N 45°30' E 036°49'0 0.0
2016-Nov-11 06:30N 45°30' E 036°49'0 0.0
2016-Nov-11 05:24N 45°30' E 036°49'0 0.1
2016-Nov-11 03:24N 45°31' E 036°48'0 0.0
2016-Nov-09 08:10N 45°31' E 036°49'0 0.0
2016-Nov-09 05:04N 45°30' E 036°49'0 0.0
2016-Nov-08 09:07N 45°31' E 036°49'0 0.0
2016-Nov-08 06:31N 45°30' E 036°49'0 0.0
2016-Nov-08 04:28N 45°31' E 036°49'  
Track history (hours):
 
Tides and Currents Weather Stations Pressure Air Temp Water Temp Dewpoint Dewpoint Depression Visibility Wind Speed Wind Dir Waves Ship Positions

M._banatov

Last reported at 2016-Nov-17 19:24 UTC. Time now 2016-Dec-04 18:20 UTC.
Position N 45°30' E 036°48'.
Warning: this ship's position is 16 days out of date.

Length 132 m; draft 2.8 m.

Type: Ship. MMSI: 273272100.

Date/timePositionNaut miles runAvg speedWind from/ knotsBaromVisibWave heightAir tempDewpointWater temp
2016-Nov-17 19:24N 45°30' E 036°48'6 7.3
2016-Nov-17 18:33N 45°25' E 036°42'15 3.8
2016-Nov-17 14:33N 45°13' E 036°30'7 6.6
2016-Nov-17 13:32N 45°07' E 036°34'5 0.4
2016-Nov-17 02:14N 45°11' E 036°31'13 4.7
2016-Nov-16 23:33N 45°22' E 036°40'3 2.6
2016-Nov-16 22:33N 45°24' E 036°42'8 0.3
2016-Nov-15 18:22N 45°30' E 036°49'0 0.0
2016-Nov-15 13:08N 45°30' E 036°49'0 0.0
2016-Nov-15 12:20N 45°30' E 036°49'0 0.0
2016-Nov-15 11:32N 45°30' E 036°49'0 0.0
2016-Nov-15 10:29N 45°30' E 036°49'0 0.0
2016-Nov-15 07:16N 45°30' E 036°49'0 0.0
2016-Nov-15 06:10N 45°30' E 036°49'0 0.0
2016-Nov-15 05:43N 45°30' E 036°49'0 0.0
2016-Nov-14 23:16N 45°30' E 036°49'0 0.0
2016-Nov-14 11:25N 45°30' E 036°49'0 0.0
2016-Nov-14 08:30N 45°30' E 036°49'0 0.0
2016-Nov-14 05:24N 45°30' E 036°49'0 0.0
2016-Nov-13 08:22N 45°30' E 036°48'0 0.0
2016-Nov-12 16:25N 45°30' E 036°48'0 0.0
2016-Nov-12 15:20N 45°30' E 036°48'0 0.0
2016-Nov-12 13:26N 45°30' E 036°48'0 0.0
2016-Nov-12 12:14N 45°30' E 036°48'0 0.0
2016-Nov-12 11:23N 45°30' E 036°48'0 0.0
2016-Nov-12 09:29N 45°30' E 036°48'0 0.0
2016-Nov-12 06:29N 45°30' E 036°48'0 0.0
2016-Nov-11 10:33N 45°31' E 036°49'0 0.0
2016-Nov-11 09:27N 45°30' E 036°49'0 0.0
2016-Nov-11 06:30N 45°30' E 036°49'0 0.0
2016-Nov-11 05:24N 45°30' E 036°49'0 0.1
2016-Nov-11 03:24N 45°31' E 036°48'0 0.0
2016-Nov-09 08:10N 45°31' E 036°49'0 0.0
2016-Nov-09 05:04N 45°30' E 036°49'0 0.0
2016-Nov-08 09:07N 45°31' E 036°49'0 0.0
2016-Nov-08 06:31N 45°30' E 036°49'0 0.0
2016-Nov-08 04:28N 45°31' E 036°49'  

Dump ship's entire track history